createdAt,value
2017-02-24T04:45:42.734Z,99.99
2017-02-24T04:46:23.149Z,99.99
2017-02-24T04:47:03.577Z,99.99
2017-02-24T04:47:44.014Z,99.99
2017-02-24T04:48:24.405Z,99.99
2017-02-24T04:49:04.871Z,99.99
2017-02-24T04:49:45.324Z,99.99
2017-02-24T04:50:25.755Z,99.99
2017-02-24T04:51:06.207Z,99.99
2017-02-24T04:51:46.665Z,99.99
2017-02-24T04:52:27.072Z,99.99
2017-02-24T04:53:07.461Z,99.99
2017-02-24T04:53:47.965Z,99.99
2017-02-24T04:54:28.408Z,99.99
2017-02-24T04:55:08.765Z,99.99
2017-02-24T04:55:49.205Z,99.99
2017-02-24T04:56:29.689Z,99.99
2017-02-24T04:57:10.088Z,99.99
2017-02-24T04:57:50.542Z,99.99
2017-02-24T04:58:30.913Z,99.99
2017-02-24T04:59:11.410Z,99.99
2017-02-24T04:59:51.866Z,99.99
2017-02-24T05:00:32.275Z,99.99
2017-02-24T05:01:12.680Z,99.99
2017-02-24T05:01:53.155Z,99.99
2017-02-24T05:02:33.627Z,99.99
2017-02-24T05:03:14.103Z,99.99
2017-02-24T05:03:54.505Z,99.99
2017-02-24T05:04:34.951Z,99.99
2017-02-24T05:05:15.394Z,99.99
2017-02-24T05:05:55.768Z,99.99
2017-02-24T05:06:36.188Z,99.99
2017-02-24T05:07:16.624Z,99.99
2017-02-24T05:07:57.078Z,99.99
2017-02-24T05:08:37.519Z,99.99
2017-02-24T05:09:17.957Z,99.99
2017-02-24T05:09:58.426Z,99.99
2017-02-24T05:10:38.908Z,99.99
2017-02-24T05:11:19.381Z,99.99
2017-02-24T05:11:59.785Z,99.99
2017-02-24T05:12:40.280Z,99.99
2017-02-24T05:13:20.699Z,99.99
2017-02-24T05:14:01.153Z,99.99
2017-02-24T05:14:41.535Z,99.99
2017-02-24T05:15:22.020Z,99.99
2017-02-24T05:16:02.347Z,99.99
2017-02-24T05:16:42.791Z,99.99
2017-02-24T05:17:23.221Z,99.99
2017-02-24T05:18:03.652Z,99.99
2017-02-24T05:18:44.137Z,99.99
2017-02-24T05:19:24.605Z,99.99
2017-02-24T05:20:04.980Z,99.99
2017-02-24T05:20:45.459Z,99.99
2017-02-24T05:21:25.849Z,99.99
2017-02-24T05:22:06.263Z,99.99
2017-02-24T05:22:46.687Z,99.99
2017-02-24T12:59:17.791Z,97.51
2017-02-24T12:59:58.187Z,98.27
2017-02-24T13:00:38.652Z,98.22
2017-02-24T13:01:19.080Z,98.32
2017-02-24T13:01:59.508Z,98.5
2017-02-24T13:02:39.941Z,98.69
2017-02-24T13:03:20.478Z,99.17
2017-02-24T13:04:00.862Z,98.6
2017-02-24T13:04:41.291Z,98.13
2017-02-24T13:05:21.717Z,98.22
2017-02-24T13:06:02.068Z,98.6
2017-02-24T13:06:42.504Z,99.27
2017-02-24T13:07:22.929Z,99.17
2017-02-24T16:10:11.106Z,98.54
2017-02-24T16:10:51.552Z,98.45
2017-02-24T16:11:31.994Z,98.54
2017-02-24T16:12:12.448Z,98.45
2017-02-24T16:12:53.045Z,98.45
2017-02-24T16:13:33.501Z,98.64
2017-02-24T16:14:13.838Z,98.45
2017-02-24T16:14:54.236Z,98.45
2017-02-24T16:15:35.023Z,98.26
2017-02-24T16:16:15.345Z,98.4
2017-02-24T16:16:56.063Z,98.4
2017-02-24T16:17:36.505Z,98.21
2017-02-24T16:18:16.982Z,98.11
2017-02-24T16:18:59.326Z,98.11
2017-02-24T16:19:40.240Z,97.92
2017-02-24T16:20:20.659Z,98.3
2017-02-24T16:21:01.382Z,98.4
2017-02-24T16:21:41.919Z,98.59
2017-02-24T16:22:22.350Z,98.3
2017-02-24T16:23:02.739Z,98.21
2017-02-24T16:23:43.261Z,98.97
2017-02-24T16:24:23.694Z,98.97
2017-02-24T16:25:04.195Z,98.3
2017-02-24T16:25:44.713Z,98.11
2017-02-24T16:26:25.197Z,98.21
2017-02-24T16:27:05.632Z,98.11
2017-02-24T16:27:46.149Z,98.11
2017-02-24T16:28:26.607Z,98.21
2017-02-24T16:29:07.074Z,98.78
2017-02-24T16:29:47.490Z,98.59
2017-02-24T16:30:28.048Z,98.97
2017-02-24T16:31:08.413Z,98.78
2017-02-24T16:31:48.818Z,98.87
2017-02-24T16:32:29.260Z,98.97
2017-02-24T16:33:09.713Z,98.97
2017-02-24T16:33:50.457Z,98.87
2017-02-24T16:34:30.879Z,98.59
2017-02-24T16:35:11.370Z,98.68
2017-02-24T16:35:51.838Z,98.68
2017-02-24T16:36:32.227Z,98.68
2017-02-24T16:37:12.638Z,98.59
2017-02-24T16:37:53.128Z,98.87
2017-02-24T16:38:33.533Z,98.97
2017-02-24T16:39:13.956Z,98.97
2017-02-24T16:39:54.421Z,99.01
2017-02-24T16:40:34.776Z,98.63
2017-02-24T16:41:15.164Z,98.54
2017-02-24T16:41:55.658Z,98.35
2017-02-24T16:42:37.026Z,98.92
2017-02-24T16:43:18.959Z,98.82
2017-02-24T16:43:58.735Z,98.82
2017-02-24T16:44:40.089Z,98.82
2017-02-24T16:45:19.953Z,98.82
2017-02-24T16:46:00.349Z,98.63
2017-02-24T16:46:40.784Z,98.92
2017-02-24T16:47:22.276Z,98.82
2017-02-24T16:48:04.792Z,98.35
2017-02-24T16:48:46.816Z,98.07
2017-02-24T16:49:27.799Z,97.88
2017-02-24T16:50:08.227Z,98.35
2017-02-24T16:50:48.596Z,98.44
2017-02-24T16:51:29.254Z,98.35
2017-02-24T16:52:09.657Z,98.44
2017-02-24T16:52:50.028Z,98.16
2017-02-24T16:53:30.563Z,98.35
2017-02-24T16:54:10.936Z,98.35
2017-02-24T16:54:51.368Z,98.54
2017-02-24T16:55:32.461Z,97.88
2017-02-24T16:56:12.979Z,97.88
2017-02-24T16:56:53.422Z,97.78
2017-02-24T16:57:35.232Z,97.88
2017-02-24T16:58:17.628Z,98.07
2017-02-24T16:59:00.297Z,97.97
2017-02-24T16:59:41.244Z,97.83
2017-02-24T17:00:21.749Z,98.39
2017-02-24T17:01:02.734Z,98.3
2017-02-24T17:01:45.413Z,98.49
2017-02-24T17:02:25.847Z,98.3
2017-02-24T17:03:06.299Z,98.3
2017-02-24T17:03:47.326Z,98.3
2017-02-24T17:04:27.596Z,98.49
2017-02-24T17:05:08.046Z,98.49
2017-02-24T17:05:48.491Z,98.49
2017-02-24T17:06:31.058Z,98.49
2017-02-24T17:07:11.661Z,97.73
2017-02-24T17:07:52.085Z,97.83
2017-02-24T17:08:32.567Z,97.92
2017-02-24T17:09:12.865Z,97.83
2017-02-24T17:09:53.249Z,98.02
2017-02-24T17:10:34.806Z,97.83
2017-02-24T17:11:14.685Z,97.92
2017-02-24T17:11:55.117Z,97.83
2017-02-24T17:12:35.542Z,98.02
2017-02-24T17:13:15.912Z,98.02
2017-02-24T17:13:57.212Z,98.02
2017-02-24T17:14:40.362Z,97.83
2017-02-24T17:15:22.040Z,98.02
2017-02-24T17:16:05.085Z,97.92
2017-02-24T17:16:46.091Z,98.11
2017-02-24T17:17:26.639Z,98.02
2017-02-24T17:18:07.009Z,97.92
2017-02-24T17:18:47.856Z,97.83
2017-02-24T17:19:28.415Z,97.92
2017-02-24T17:20:08.774Z,98.21
2017-02-24T17:20:49.251Z,97.73
2017-02-24T17:21:29.637Z,97.83
2017-02-24T17:22:10.064Z,97.92
2017-02-24T17:22:50.640Z,98.21
2017-02-24T17:23:33.004Z,97.87
2017-02-24T17:24:14.957Z,97.87
2017-02-24T17:24:57.062Z,97.87
2017-02-24T17:25:38.201Z,98.16
2017-02-24T17:26:18.724Z,97.87
2017-02-24T17:26:59.476Z,97.87
2017-02-24T17:27:39.914Z,97.97
2017-02-24T17:28:20.822Z,97.78
2017-02-24T17:29:00.810Z,97.78
2017-02-24T17:29:41.254Z,97.87
2017-02-24T17:30:21.637Z,97.87
2017-02-24T17:31:02.055Z,97.97
2017-02-24T17:31:42.424Z,98.16
2017-02-24T17:32:22.993Z,98.25
2017-02-24T17:33:03.423Z,98.35
2017-02-24T17:33:43.770Z,98.16
2017-02-24T17:34:24.459Z,98.06
2017-02-24T17:35:04.916Z,98.35
2017-02-24T17:35:45.339Z,97.87
2017-02-24T17:36:25.781Z,98.16
2017-02-24T17:37:06.198Z,97.87
2017-02-24T17:37:46.607Z,97.87
2017-02-24T17:38:30.444Z,98.06
2017-02-24T17:39:10.835Z,98.06
2017-02-24T17:39:51.280Z,98.06
2017-02-24T17:40:31.712Z,98.06
2017-02-24T17:41:12.293Z,98.16
2017-02-24T17:41:52.711Z,98.16
2017-02-24T17:42:33.129Z,98.16
2017-02-24T17:43:13.517Z,97.73
2017-02-24T17:43:54.297Z,98.01
2017-02-24T17:44:35.276Z,97.82
2017-02-24T17:45:15.668Z,97.63
2017-02-24T17:45:57.030Z,97.82
2017-02-24T17:46:36.533Z,97.92
2017-02-24T17:47:16.912Z,97.63
2017-02-24T17:47:57.455Z,97.92
2017-02-24T17:48:37.843Z,97.82
2017-02-24T17:49:18.554Z,98.01
2017-02-24T17:49:59.010Z,98.01
2017-02-24T17:50:39.388Z,97.92
2017-02-24T17:51:19.759Z,97.73
2017-02-24T17:52:00.396Z,97.63
2017-02-24T17:52:40.864Z,97.63
2017-02-24T17:53:21.234Z,97.92
2017-02-24T17:54:01.682Z,97.82
2017-02-24T17:54:42.130Z,97.82
2017-02-24T17:55:22.679Z,97.92
2017-02-24T17:56:03.182Z,97.82
2017-02-24T17:56:43.650Z,98.01
2017-02-24T17:57:24.081Z,98.3
2017-02-24T17:58:04.433Z,97.92
2017-02-24T17:58:44.880Z,98.01
2017-02-24T17:59:25.475Z,97.39
2017-02-24T18:00:05.860Z,97.3
2017-02-24T18:00:46.247Z,97.3
2017-02-24T18:01:26.787Z,97.2
2017-02-24T18:02:08.924Z,97.3
2017-02-24T18:02:49.375Z,97.2
2017-02-24T18:03:29.789Z,97.3
2017-02-24T18:04:10.166Z,97.96
2017-02-24T18:04:50.586Z,97.68
2017-02-24T18:05:30.940Z,97.87
2017-02-24T18:06:11.356Z,98.06
2017-02-24T18:06:51.814Z,97.87
2017-02-24T18:07:32.260Z,97.58
2017-02-24T18:08:12.734Z,97.77
2017-02-24T18:08:53.102Z,97.77
2017-02-24T18:09:33.521Z,97.68
2017-02-24T18:10:13.917Z,97.87
2017-02-24T18:10:54.594Z,97.77
2017-02-24T18:11:35.531Z,97.77
2017-02-24T18:12:15.974Z,97.77
2017-02-24T18:12:56.405Z,97.77
2017-02-24T18:13:36.831Z,97.87
2017-02-24T18:14:17.241Z,97.87
2017-02-24T18:14:57.832Z,98.34
2017-02-24T18:15:38.241Z,97.87
2017-02-24T18:16:18.651Z,98.34
2017-02-24T18:16:59.017Z,98.25
2017-02-24T18:17:39.448Z,97.96
2017-02-24T18:18:19.837Z,98.06
2017-02-24T18:19:00.278Z,98.53
2017-02-24T18:19:40.685Z,98.63
2017-02-24T18:20:21.058Z,98.44
2017-02-24T18:21:01.495Z,98.72
2017-02-24T18:21:41.871Z,98.82
2017-02-24T18:22:22.261Z,98.63
2017-02-24T18:23:02.725Z,98.53
2017-02-24T18:23:43.210Z,98.63
2017-02-24T18:24:23.644Z,98.44
2017-02-24T18:25:04.014Z,98.34
2017-02-24T18:25:44.478Z,98.44
2017-02-24T18:26:24.872Z,98.53
2017-02-24T18:27:05.340Z,98.44
2017-02-24T18:27:45.774Z,98.53
2017-02-24T18:28:26.181Z,98.53
2017-02-24T18:29:06.568Z,98.25
2017-02-24T18:29:46.954Z,98.63
2017-02-24T18:30:27.378Z,98.63
2017-02-24T18:31:07.808Z,98.34
2017-02-24T18:31:48.196Z,98.53
2017-02-24T18:32:28.627Z,98.63
2017-02-24T18:33:09.053Z,98.44
2017-02-24T18:33:49.492Z,98.44
2017-02-24T18:34:29.982Z,99.01
2017-02-24T18:35:10.417Z,98.72
2017-02-24T18:35:51.736Z,98.82
2017-02-24T18:36:32.275Z,98.44
2017-02-24T18:37:13.477Z,98.63
2017-02-24T18:37:53.731Z,98.72
2017-02-24T18:38:34.130Z,98.72
2017-02-24T18:39:14.510Z,98.72
2017-02-24T18:39:54.965Z,98.91
2017-02-24T18:40:35.461Z,98.34
2017-02-24T18:41:15.859Z,98.63
2017-02-24T18:41:56.275Z,98.63
2017-02-24T18:42:36.698Z,98.63
2017-02-24T18:43:17.128Z,98.53
2017-02-24T18:43:57.483Z,98.91
2017-02-24T18:44:37.964Z,98.06
2017-02-24T18:45:18.318Z,98.06
2017-02-24T18:45:58.717Z,98.15
2017-02-24T18:46:39.108Z,98.15
2017-02-24T18:47:19.520Z,98.15
2017-02-24T18:48:00.012Z,98.34
2017-02-24T18:48:40.411Z,98.15
2017-02-24T18:49:20.811Z,98.44
2017-02-24T18:50:01.176Z,98.15
2017-02-24T18:50:41.663Z,98.34
2017-02-24T18:51:22.054Z,98.15
2017-02-24T18:52:02.495Z,97.77
2017-02-24T18:52:42.968Z,98.06
2017-02-24T18:53:23.392Z,97.87
2017-02-24T18:54:03.965Z,97.77
2017-02-24T18:54:44.461Z,98.15
2017-02-24T18:55:24.910Z,98.34
2017-02-24T18:56:05.317Z,98.25
2017-02-24T18:56:45.722Z,98.15
2017-02-24T18:57:26.169Z,98.15
2017-02-24T18:58:06.602Z,98.15
2017-02-24T18:58:46.965Z,98.25
2017-02-24T18:59:27.352Z,98.15
2017-02-24T19:00:07.795Z,98.15
2017-02-24T19:00:48.179Z,98.15
2017-02-24T19:01:28.616Z,98.34
2017-02-24T19:02:09.042Z,97.96
2017-02-24T19:02:49.462Z,98.15
2017-02-24T19:03:29.897Z,98.15
2017-02-24T19:04:10.312Z,98.01
2017-02-24T19:04:50.745Z,98.06
2017-02-24T19:05:31.105Z,98.91
2017-02-24T19:06:11.465Z,98.82
2017-02-24T19:06:51.900Z,98.63
2017-02-24T19:07:32.332Z,98.44
2017-02-24T19:08:12.818Z,98.44
2017-02-24T19:08:53.248Z,98.53
2017-02-24T19:09:33.633Z,98.53
2017-02-24T19:10:14.064Z,98.72
2017-02-24T19:10:54.502Z,98.86
2017-02-24T19:11:34.861Z,98.58
2017-02-24T19:12:15.276Z,98.63
2017-02-24T19:12:55.642Z,98.34
2017-02-24T19:13:36.077Z,99.01
2017-02-24T19:14:16.483Z,98.82
2017-02-24T19:14:56.893Z,98.82
2017-02-24T19:15:37.280Z,98.91
2017-02-24T19:16:17.688Z,98.91
2017-02-24T19:16:58.105Z,98.91
2017-02-24T19:17:38.495Z,99.1
2017-02-24T19:18:18.929Z,99.1
2017-02-24T19:18:59.281Z,99.1
2017-02-24T19:19:39.661Z,99.19
2017-02-24T19:20:20.080Z,98.91
2017-02-24T19:21:06.499Z,99.1
2017-02-24T19:21:47.091Z,98.91
2017-02-24T19:22:27.513Z,99.1
2017-02-24T19:23:07.933Z,99.19
2017-02-24T19:23:48.302Z,99.85
2017-02-24T19:24:28.727Z,99.85
2017-02-24T19:25:09.134Z,99.48
2017-02-24T19:25:49.527Z,99.95
2017-02-24T19:26:29.917Z,99.85
2017-02-24T19:27:10.282Z,99.76
2017-02-24T19:27:50.699Z,99.99
2017-02-24T19:28:31.223Z,99.99
2017-02-24T19:29:11.613Z,99.99
2017-02-24T19:29:52.036Z,99.99
2017-02-24T19:30:32.428Z,99.99
2017-02-24T19:31:12.906Z,99.99
2017-02-24T19:31:53.301Z,99.99
2017-02-24T19:32:33.704Z,99.99
2017-02-24T19:33:14.076Z,99.99
2017-02-24T19:33:54.562Z,99.99
2017-02-24T19:34:34.909Z,99.99
2017-02-24T19:35:15.357Z,99.99
2017-02-24T19:35:55.803Z,99.99
2017-02-24T19:36:36.234Z,99.99
2017-02-24T19:37:16.607Z,99.99
2017-02-24T19:37:57.029Z,99.99
2017-02-24T19:38:37.402Z,99.99
2017-02-24T19:39:17.756Z,99.99
2017-02-24T19:39:58.238Z,99.99
2017-02-24T19:40:38.580Z,99.99
2017-02-24T19:41:18.958Z,99.99
2017-02-24T19:41:59.318Z,99.99
2017-02-24T19:42:39.735Z,99.99
2017-02-24T19:43:20.192Z,99.76
2017-02-24T19:44:00.564Z,99.95
2017-02-24T19:44:41.013Z,99.95
2017-02-24T19:45:21.562Z,99.57
2017-02-24T19:46:02.014Z,99.66
2017-02-24T19:46:42.380Z,99.66
2017-02-24T19:47:22.807Z,99.57
2017-02-24T19:48:03.183Z,99.66
2017-02-24T19:48:43.619Z,99.76
2017-02-24T19:49:24.013Z,99.85
2017-02-24T19:50:04.417Z,99.95
2017-02-24T19:50:44.905Z,99.85
2017-02-24T19:51:25.291Z,99.57
2017-02-24T19:52:05.737Z,99.57
2017-02-24T19:52:46.093Z,99.57
2017-02-24T19:53:26.547Z,99.76
2017-02-24T19:54:06.987Z,99.38
2017-02-24T19:54:47.384Z,99.99
2017-02-24T19:55:27.786Z,99.95
2017-02-24T19:56:08.215Z,99.76
2017-02-24T19:56:48.616Z,99.95
2017-02-24T19:57:29.019Z,99.85
2017-02-24T19:58:09.477Z,99.85
2017-02-24T19:58:49.908Z,99.85
2017-02-24T19:59:30.713Z,99.66
2017-02-24T20:00:11.154Z,99.99
2017-02-24T20:00:52.232Z,99.99
2017-02-24T20:01:33.485Z,99.99
2017-02-24T20:02:13.463Z,99.99
2017-02-24T20:02:53.880Z,99.99
2017-02-24T20:03:34.264Z,99.99
2017-02-24T20:04:14.700Z,99.99
2017-02-24T20:04:55.125Z,99.99
2017-02-24T20:05:35.536Z,99.99
2017-02-24T20:06:15.952Z,99.95
2017-02-24T20:06:56.333Z,99.99
2017-02-24T20:07:36.779Z,99.99
2017-02-24T20:08:17.190Z,99.99
2017-02-24T20:08:57.595Z,99.99
2017-02-24T20:09:38.011Z,99.99
2017-02-24T20:10:18.403Z,99.99
2017-02-24T20:10:58.844Z,99.99
2017-02-24T20:11:39.235Z,99.99
2017-02-24T20:12:19.683Z,99.99
2017-02-24T20:13:00.179Z,99.99
2017-02-24T20:13:40.511Z,99.99
2017-02-24T20:14:20.985Z,99.99
2017-02-24T20:15:01.460Z,99.99
2017-02-24T20:15:41.823Z,99.99
2017-02-24T20:16:22.215Z,99.99
2017-02-24T20:17:02.629Z,99.99
2017-02-24T20:17:43.180Z,99.99
2017-02-24T20:18:23.704Z,99.99
2017-02-24T20:19:04.125Z,99.99
2017-02-24T20:19:44.558Z,99.99
2017-02-24T20:20:24.983Z,99.66
2017-02-24T20:21:05.450Z,99.57
2017-02-24T20:21:45.984Z,99.95
2017-02-24T20:22:26.405Z,99.85
2017-02-24T20:23:06.779Z,99.66
2017-02-24T20:23:47.200Z,99.95
2017-02-24T20:24:27.628Z,99.76
2017-02-24T20:25:08.083Z,99.85
2017-02-24T20:25:48.513Z,99.85
2017-02-24T20:26:28.937Z,99.95
2017-02-24T20:27:09.314Z,99.99
2017-02-24T20:27:49.729Z,99.66
2017-02-24T20:28:30.131Z,99.57
2017-02-24T20:29:10.506Z,99.95
2017-02-24T20:29:50.928Z,99.52
2017-02-24T20:30:31.338Z,99.71
2017-02-24T20:31:11.752Z,99.24
2017-02-24T20:31:52.139Z,99.15
2017-02-24T20:32:32.526Z,99.05
2017-02-24T20:33:12.990Z,98.86
2017-02-24T20:33:53.435Z,98.86
2017-02-24T20:34:33.943Z,98.86
2017-02-24T20:35:14.267Z,99.05
2017-02-24T20:35:54.718Z,99.33
2017-02-24T20:36:35.080Z,99.24
2017-02-24T20:37:15.565Z,99.8
2017-02-24T20:37:56.630Z,99.8
2017-02-24T20:38:37.083Z,99.52
2017-02-24T20:39:17.477Z,99.99
2017-02-24T20:39:57.868Z,99.99
2017-02-24T20:40:38.304Z,99.99
2017-02-24T20:41:18.774Z,99.99
2017-02-24T20:41:59.229Z,99.99
2017-02-24T20:42:39.637Z,99.99
2017-02-24T20:43:20.313Z,99.99
2017-02-24T20:44:00.720Z,99.99
2017-02-24T20:44:41.154Z,99.99
2017-02-24T20:45:21.569Z,99.99
2017-02-24T20:46:02.326Z,99.99
2017-02-24T20:46:42.784Z,99.99
2017-02-24T20:47:24.939Z,99.99
2017-02-24T20:49:43.075Z,99.99
2017-02-24T20:50:23.687Z,99.99
2017-02-24T20:51:04.093Z,99.99
2017-02-24T20:51:44.984Z,99.99
2017-02-24T20:52:25.461Z,99.95
2017-02-24T20:53:05.862Z,99.99
2017-02-24T20:53:46.247Z,99.99
2017-02-24T20:54:26.884Z,99.99
2017-02-24T20:55:07.377Z,99.99
2017-02-24T20:55:47.901Z,99.99
2017-02-24T20:56:28.503Z,99.99
2017-02-24T20:57:08.926Z,99.99
2017-02-24T20:57:50.473Z,99.99
2017-02-24T20:58:31.349Z,99.95
2017-02-24T20:59:11.930Z,99.99
2017-02-24T20:59:56.292Z,99.99
2017-02-24T21:00:37.424Z,99.99
2017-02-24T21:01:17.758Z,99.99
2017-02-24T21:02:00.911Z,99.99
2017-02-24T21:02:41.906Z,99.99
2017-02-24T21:03:23.386Z,99.99
2017-02-24T21:04:03.798Z,99.99
2017-02-24T21:04:44.234Z,99.99
2017-02-24T21:05:24.647Z,99.99
2017-02-24T21:06:05.561Z,99.99
2017-02-24T21:06:46.438Z,99.99
2017-02-24T21:07:27.066Z,99.8
2017-02-24T21:08:07.893Z,99.95
2017-02-24T21:08:48.420Z,99.52
2017-02-24T21:09:28.914Z,99.52
2017-02-24T21:10:09.817Z,99.9
2017-02-24T21:10:50.371Z,99.52
2017-02-24T21:11:33.328Z,99.52
2017-02-24T21:12:57.675Z,99.52
2017-02-24T21:13:38.545Z,99.43
2017-02-24T21:14:20.200Z,99.9
2017-02-24T21:15:00.798Z,99.33
2017-02-24T21:15:41.197Z,99.52
2017-02-24T21:16:21.678Z,99.52
2017-02-24T21:17:02.082Z,99.52
2017-02-24T21:17:42.505Z,99.71
2017-02-24T21:18:22.872Z,99.9
2017-02-24T21:19:03.550Z,99.52
2017-02-24T21:19:43.930Z,99.8
2017-02-24T21:20:24.344Z,99.8
2017-02-24T21:21:04.806Z,99.9
2017-02-24T21:21:47.917Z,99.15
2017-02-24T21:22:28.502Z,99.9
2017-02-24T21:23:09.180Z,99.15
2017-02-24T21:23:49.733Z,99.15
2017-02-24T21:24:30.095Z,98.86
2017-02-24T21:25:10.528Z,99.43
2017-02-24T21:25:51.003Z,99.15
2017-02-24T21:26:32.007Z,98.86
2017-02-24T21:27:12.378Z,98.77
2017-02-24T21:27:52.770Z,98.77
2017-02-24T21:28:33.204Z,98.96
2017-02-24T21:29:13.989Z,98.77
2017-02-24T21:29:54.391Z,98.77
2017-02-24T21:30:34.760Z,99.33
2017-02-24T21:31:15.159Z,98.96
2017-02-24T21:31:55.824Z,98.67
2017-02-24T21:32:36.301Z,99.15
2017-02-24T21:33:16.840Z,99.24
2017-02-24T21:35:29.162Z,98.48
2017-02-24T21:36:12.208Z,99.15
2017-02-24T21:36:54.524Z,99.05
2017-02-24T21:37:34.881Z,99.33
2017-02-24T21:38:15.531Z,99.52
2017-02-24T21:38:56.105Z,99.76
2017-02-24T21:39:37.046Z,99.76
2017-02-24T21:40:17.576Z,99.9
2017-02-24T21:40:58.187Z,99.85
2017-02-24T21:41:38.596Z,99.09
2017-02-24T21:42:19.020Z,99.28
2017-02-24T21:42:59.403Z,98.77
2017-02-24T21:43:39.794Z,99.09
2017-02-24T21:44:20.188Z,98.81
2017-02-24T21:45:00.578Z,99
2017-02-24T21:45:41.280Z,98.71
2017-02-24T21:46:21.687Z,99
2017-02-24T21:47:02.113Z,98.62
2017-02-24T21:47:42.536Z,98.62
2017-02-24T21:48:22.932Z,98.62
2017-02-24T21:49:03.379Z,98.71
2017-02-24T21:49:43.805Z,98.43
2017-02-24T21:50:24.181Z,98.52
2017-02-24T21:51:04.634Z,98.62
2017-02-24T21:51:44.990Z,98.52
2017-02-24T21:52:25.367Z,98.62
2017-02-24T21:53:05.793Z,98.71
2017-02-24T21:53:46.303Z,98.52
2017-02-24T21:54:26.698Z,98.62
2017-02-24T21:55:07.153Z,98.52
2017-02-24T21:55:47.576Z,98.52
2017-02-24T21:56:27.959Z,98.52
2017-02-24T21:57:08.364Z,98.52
2017-02-24T21:57:49.081Z,98.52
2017-02-24T21:58:29.723Z,98.71
2017-02-24T21:59:10.141Z,98.62
2017-02-24T21:59:51.369Z,98.62
2017-02-24T22:00:31.760Z,98.62
2017-02-24T22:01:12.487Z,98.81
2017-02-24T22:01:53.167Z,98.71
2017-02-24T22:02:33.584Z,98.43
2017-02-24T22:03:14.267Z,98.43
2017-02-24T22:03:54.539Z,98.62
2017-02-24T22:04:35.313Z,98.62
2017-02-24T22:05:15.714Z,98.62
2017-02-24T22:05:56.644Z,98.62
2017-02-24T22:06:37.348Z,98.71
2017-02-24T22:07:17.741Z,98.71
2017-02-24T22:07:58.226Z,98.62
2017-02-24T22:08:38.787Z,98.43
2017-02-24T22:09:19.163Z,98.33
2017-02-24T22:09:59.529Z,98.33
2017-02-24T22:10:39.952Z,98.62
2017-02-24T22:11:20.539Z,98.62
2017-02-24T22:12:00.917Z,98.33
2017-02-24T22:12:41.691Z,98.62
2017-02-24T22:13:22.159Z,98.52
2017-02-24T22:14:02.688Z,98.43
2017-02-24T22:14:43.473Z,98.62
2017-02-24T22:15:23.857Z,98.52
2017-02-24T22:16:04.533Z,98.43
2017-02-24T22:16:45.011Z,98.52
2017-02-24T22:17:25.381Z,98.52
2017-02-24T22:18:05.816Z,98.52
2017-02-24T22:18:46.189Z,98.71
2017-02-24T22:19:26.878Z,99
2017-02-24T22:20:07.287Z,98.9
2017-02-24T22:20:47.723Z,98.9
2017-02-24T22:21:29.211Z,98.9
2017-02-24T22:22:09.735Z,98.71
2017-02-24T22:22:50.159Z,98.71
2017-02-24T22:23:30.644Z,98.9
2017-02-24T22:24:11.006Z,98.62
2017-02-24T22:24:51.446Z,98.62
2017-02-24T22:25:31.901Z,99
2017-02-24T22:26:12.276Z,99
2017-02-24T22:26:52.703Z,98.62
2017-02-24T22:27:33.126Z,98.62
2017-02-24T22:28:13.521Z,98.62
2017-02-24T22:28:53.910Z,98.81
2017-02-24T22:29:34.311Z,98.71
2017-02-24T22:30:14.709Z,98.81
2017-02-24T22:30:55.166Z,98.24
2017-02-24T22:31:35.532Z,98.71
2017-02-24T22:32:15.944Z,98.62
2017-02-24T22:32:56.293Z,98.43
2017-02-24T22:33:37.090Z,98.71
2017-02-24T22:34:17.523Z,98.43
2017-02-24T22:34:58.005Z,98.14
2017-02-24T22:35:38.536Z,98.52
2017-02-24T22:36:18.943Z,99
2017-02-24T22:36:59.390Z,99.09
2017-02-24T22:37:39.792Z,98.52
2017-02-24T22:38:20.659Z,98.81
2017-02-24T22:39:01.092Z,98.43
2017-02-24T22:39:41.473Z,98.81
2017-02-24T22:40:21.921Z,99
2017-02-24T22:41:02.381Z,98.81
2017-02-24T22:41:42.745Z,98.81
2017-02-24T22:42:23.349Z,99
2017-02-24T22:43:03.832Z,99.28
2017-02-24T22:43:44.505Z,99.28
2017-02-24T22:44:25.025Z,99.19
2017-02-24T22:45:05.403Z,99.38
2017-02-24T22:45:46.027Z,98.9
2017-02-24T22:46:26.402Z,98.9
2017-02-24T22:47:06.825Z,98.71
2017-02-24T22:47:47.211Z,98.71
2017-02-24T22:48:27.609Z,98.9
2017-02-24T22:49:08.155Z,98.71
2017-02-24T22:49:48.556Z,99
2017-02-24T22:50:29.280Z,98.81
2017-02-24T22:51:09.677Z,99
2017-02-24T22:51:50.085Z,98.9
2017-02-24T22:52:31.438Z,98.81
2017-02-24T22:53:11.882Z,98.81
2017-02-24T22:53:52.895Z,99.09
2017-02-24T22:54:33.831Z,98.81
2017-02-24T22:55:14.263Z,98.52
2017-02-24T22:55:54.646Z,98.71
2017-02-24T22:56:35.013Z,99.09
2017-02-24T22:57:15.432Z,99.09
2017-02-24T22:57:55.855Z,99.28
2017-02-24T22:58:36.253Z,99
2017-02-24T22:59:16.673Z,99
2017-02-24T22:59:57.458Z,98.95
2017-02-24T23:00:37.848Z,99
2017-02-24T23:01:18.576Z,98.76
2017-02-24T23:01:58.980Z,98.9
2017-02-24T23:02:39.384Z,99.09
2017-02-24T23:03:19.803Z,98.95
2017-02-24T23:04:00.745Z,98.66
2017-02-24T23:04:41.427Z,98.95
2017-02-24T23:05:21.844Z,98.85
2017-02-24T23:06:02.290Z,98.76
2017-02-24T23:06:42.645Z,98.76
2017-02-24T23:07:23.088Z,98.95
2017-02-24T23:08:03.508Z,98.66
2017-02-24T23:08:43.943Z,98.76
2017-02-24T23:09:24.334Z,99.04
2017-02-24T23:10:04.782Z,99.04
2017-02-24T23:10:45.119Z,98.85
2017-02-24T23:11:25.541Z,98.76
2017-02-24T23:12:05.938Z,98.95
2017-02-24T23:12:46.812Z,98.95
2017-02-24T23:13:27.189Z,98.95
2017-02-24T23:14:07.624Z,99.04
2017-02-24T23:14:48.065Z,98.95
2017-02-24T23:15:28.435Z,98.95
2017-02-24T23:16:09.433Z,99.04
2017-02-24T23:16:49.926Z,98.95
2017-02-24T23:17:30.294Z,99.04
2017-02-24T23:18:10.698Z,99.04
2017-02-24T23:18:51.495Z,98.95
2017-02-24T23:19:31.886Z,98.95
2017-02-24T23:20:12.294Z,98.66
2017-02-24T23:20:52.738Z,98.76
2017-02-24T23:21:33.092Z,99.04
2017-02-24T23:22:13.625Z,99.14
2017-02-24T23:22:54.636Z,98.95
2017-02-24T23:23:35.016Z,99.14
2017-02-24T23:24:16.451Z,99.8
2017-02-24T23:24:56.895Z,99.71
2017-02-24T23:25:37.324Z,99.61
2017-02-24T23:26:17.761Z,98.95
2017-02-24T23:26:58.591Z,98.95
2017-02-24T23:27:38.980Z,99.14
2017-02-24T23:28:19.340Z,98.66
2017-02-24T23:29:00.165Z,98.95
2017-02-24T23:29:40.326Z,98.76
2017-02-24T23:30:20.697Z,98.76
2017-02-24T23:31:01.078Z,99.04
2017-02-24T23:31:41.547Z,99.04
2017-02-24T23:32:22.087Z,99.04
2017-02-24T23:33:02.540Z,99.04
2017-02-24T23:33:42.917Z,98.95
2017-02-24T23:34:23.409Z,99.33
2017-02-24T23:35:03.759Z,98.95
2017-02-24T23:35:44.187Z,99.52
2017-02-24T23:36:24.563Z,99.71
2017-02-24T23:37:04.966Z,99.61
2017-02-24T23:37:45.361Z,99.52
2017-02-24T23:38:25.797Z,99.52
2017-02-24T23:39:06.157Z,99.42
2017-02-24T23:39:46.542Z,99.8
2017-02-24T23:40:26.979Z,99.89
2017-02-24T23:41:07.437Z,99.8
2017-02-24T23:41:47.824Z,99.61
2017-02-24T23:42:28.207Z,99.71
2017-02-24T23:43:08.579Z,99.99
2017-02-24T23:43:48.962Z,99.99
2017-02-24T23:44:29.414Z,99.99
2017-02-24T23:45:09.997Z,99.71
2017-02-24T23:45:50.455Z,99.42
2017-02-24T23:46:30.852Z,99.42
2017-02-24T23:47:11.311Z,99.99
2017-02-24T23:47:51.692Z,99.99
2017-02-24T23:48:32.118Z,99.99
2017-02-24T23:49:12.509Z,99.99
2017-02-24T23:49:52.922Z,99.99
2017-02-24T23:50:33.344Z,99.99
2017-02-24T23:51:14.002Z,99.99
2017-02-24T23:51:54.462Z,99.99
2017-02-24T23:52:35.039Z,99.99
2017-02-24T23:53:15.380Z,99.99
2017-02-24T23:53:55.916Z,99.99
2017-02-24T23:54:36.279Z,99.99
2017-02-24T23:55:16.854Z,99.99
2017-02-24T23:55:57.188Z,99.99
2017-02-24T23:56:37.601Z,99.99
2017-02-24T23:57:18.231Z,99.99
2017-02-24T23:57:58.737Z,99.99
2017-02-24T23:58:39.163Z,99.99
2017-02-24T23:59:19.564Z,99.99
2017-02-24T23:59:59.991Z,99.99
